Winston-Salem, NC (27106)

09:30 EDT le 31 octobre 2014 (GMT -0400)
Sunny Dell Lakes | Change Station
CLOSE
Current Station
Stations météorologiques personnelles
Location: Winston-Salem, NC
Altitude: 774 ft
Stations météo à proximité

Alt. 774 ft 36.14 °N, 80.33 °W | Updated 2 seconds ago

Couvert
Couvert
47.5 ° F
Paraît 48 ° F
N
0.0
Vent Variable Vent de SO
Gusts 0.0 mph

Aujourd'hui
Haut(e) -- | Bas -- ° F
--% Risque de précip.
Hier
Haut(e) -- | Bas -- ° F
Precip. -- pouce
7:43 AM 6:26 PM
Premier quartier, 55% visible
Pression 29.98 pouce
Visibilité 10.0 Miles terrestres
Nuages Couvert 2700 ft
Refroidissement éolien 48 ° F
Point de rosée 38 ° F
Humidité 70%
Précipitations 0.00 pouce
Profondeur de la couche neigeuse Non disponible.
UV 0.5 sur 12
Pollen .70 sur 12
Qualité de l'air Non disponible.
Flu Activity Non disponible.
METAR KINT 311254Z 04006KT 10SM OVC027 08/01 A2998 RMK AO2 SLP152 T00780006

More Conditions Fewer Conditions

Pression 29.98 pouce
Visibilité 10.0 Miles terrestres
Nuages Couvert 2700 ft
Refroidissement éolien 48 ° F
Point de rosée 38 ° F
Humidité 70%
Précipitations 0.00 pouce
Profondeur de la couche neigeuse Non disponible.
UV 0.5 sur 12
Pollen .70 sur 12
Qualité de l'air Non disponible.
Flu Activity Non disponible.
METAR KINT 311254Z 04006KT 10SM OVC027 08/01 A2998 RMK AO2 SLP152 T00780006

More Conditions Fewer Conditions

10-Day Weather Forecast

Almanac

Astronomie

Oct. 31, 2014 Lever Coucher
Temps réel
Crépuscule civil
Crépuscule nautique
Crépuscule astronomique
Lune
Durée de lumière visible
Longueur du jour
Tomorrow will be .
, % of the Moon is Illuminated

Extrêmes aujourd'hui

State Highs State Lows

Community

WunderPhotos

Upload Photos

1,766,610 Photos téléchargées !

WunderBlogs® & News

Nearby

Qualité de l'air

  Qualité de l'air Indice de la qualité de l'air Polluant
Not available.

Épaisseur de neige

Station Depth Altitude

Activité sismique

Ville Distance Mag. Time & Date
Minimum magnitude displayed is 2.5.

Températures des eaux côtières

Lieu Température

Stations météo à proximité